INFORMAÇÕES METEOROLÓGICAS
METAR FOR PADK
ADDS - METARS form results

(1039 UTC 21 April 2019)
Data provider http://aviationweather.gov/metar/data/
 
METAR text: PADK 210956Z AUTO 26017KT 10SM UP BKN023 OVC100 03/M01 A3010 RMK AO2 PK WND 26028/0905 RAE11UPB11 SLP191 P0000 T00281006 400610011
Conditions at: PADK (ADAK NAS , AK, US) observed 0956 UTC 21 April 2019
Temperature: 2.8°C (37°F)
Dewpoint: -0.6°C (31°F) [RH = 78%]
Pressure (altimeter): 30.10 inches Hg (1019.4 mb)
[Sea-level pressure: 1019.1 mb]
Winds: from the W (260 degrees) at 20 MPH (17 knots; 8.7 m/s)
Visibility: 10 or more miles (16+ km)
Ceiling: 2300 feet AGL
Clouds: broken clouds at 2300 feet AGL
overcast cloud deck at 10000 feet AGL
Weather: UP  (unknown precipitation)

METAR text: PADK 210949Z AUTO 27017G23KT 10SM UP SCT020 BKN025 OVC100 03/M01 A3009 RMK AO2 PK WND 26028/0905 RAE11UPB11 P0000
Conditions at: PADK (ADAK NAS , AK, US) observed 0949 UTC 21 April 2019
Temperature: 3.0°C (37°F)
Dewpoint: -1.0°C (30°F) [RH = 75%]
Pressure (altimeter): 30.09 inches Hg (1019.0 mb)
Winds: from the W (270 degrees) at 20 MPH (17 knots; 8.7 m/s)
gusting to 26 MPH (23 knots; 11.8 m/s)
Visibility: 10 or more miles (16+ km)
Ceiling: 2500 feet AGL
Clouds: scattered clouds at 2000 feet AGL
broken clouds at 2500 feet AGL
overcast cloud deck at 10000 feet AGL
Weather: UP  (unknown precipitation)

 MAPA DO AEROPORTO

 INFORMAÇÕES DA PISTA
Pista 05 Tamanho da pista 7790 ft Largura da pista 200 ft
Elevação da pista 17 ft Ranhura da pista 0 ft Proa da pista 61
Pista 23 Tamanho da pista 7790 ft Largura da pista 200 ft
Elevação da pista 15 ft Ranhura da pista 0 ft Proa da pista 241
Pista 18 Tamanho da pista 7605 ft Largura da pista 200 ft
Elevação da pista 6 ft Ranhura da pista 0 ft Proa da pista 185
Pista 36 Tamanho da pista 7605 ft Largura da pista 200 ft
Elevação da pista 4 ft Ranhura da pista 0 ft Proa da pista 5

 FREQUÊNCIAS DO AEROPORTO

 AUXÍLIOS DE NAVEGAÇÃO PRÓXIMOS AO AEROPORTO
Tipo NDB-DME Nome Mount Moffett Frequência 530 KHZ
Tipo TACAN Nome Adak Frequência 113000 KHZ



Powered by Mercosul Lnhas Aereas